Time;durP1;ratioP1;P1;durP2;ratioP2;P2;SDS_P1;SDS_P2;PMS_P1;PMS_P2;Temp;Humidity;BMP_temperature;BMP_pressure;BME280_temperature;BME280_humidity;BME280_pressure;Samples;Min_cycle;Max_cycle;Signal;HPM_P1;HPM_P2
2022/09/16 00:00:10;;;;;;;10.07;4.90;;;;;;;16.05;78.09;98972.31;346560;28;735;-83
2022/09/16 00:00:23;;;;;;;10.02;4.93;;;;;;;16.07;78.19;98973.03;346308;28;1228;-83
2022/09/16 00:00:35;;;;;;;7.60;4.75;;;;;;;16.10;78.60;98962.38;346270;28;822;-84
2022/09/16 00:00:47;;;;;;;5.38;4.60;;;;;;;16.12;78.25;98968.34;347075;28;990;-83
2022/09/16 00:00:59;;;;;;;5.05;4.35;;;;;;;16.12;77.78;98965.72;344793;28;1154;-83
2022/09/16 00:01:17;;;;;;;5.88;4.55;;;;;;;16.09;77.67;98969.38;343561;28;1166;-83
2022/09/16 00:01:30;;;;;;;7.40;4.75;;;;;;;16.11;77.62;98974.53;343470;28;1071;-83
2022/09/16 00:01:42;;;;;;;6.65;4.70;;;;;;;16.08;77.63;98970.31;343526;28;1063;-83
2022/09/16 00:01:54;;;;;;;5.72;4.57;;;;;;;16.04;77.96;98973.25;343612;28;1144;-83
2022/09/16 00:02:06;;;;;;;5.32;4.57;;;;;;;16.05;77.98;98970.53;343181;28;1025;-83
2022/09/16 00:02:18;;;;;;;6.22;4.90;;;;;;;16.03;77.72;98968.94;343376;28;1010;-83
2022/09/16 00:02:30;;;;;;;6.40;5.10;;;;;;;16.06;77.78;98966.13;343531;28;1079;-83
2022/09/16 00:02:42;;;;;;;6.57;4.88;;;;;;;16.08;77.76;98974.75;343488;28;1080;-83
2022/09/16 00:02:54;;;;;;;6.25;4.47;;;;;;;16.06;77.74;98972.22;343587;28;1129;-83
2022/09/16 00:03:06;;;;;;;6.90;4.55;;;;;;;16.10;77.83;98975.47;344746;28;1028;-83
2022/09/16 00:03:18;;;;;;;6.47;4.50;;;;;;;16.08;77.65;98969.50;346930;28;1066;-83
2022/09/16 00:03:31;;;;;;;7.93;4.78;;;;;;;16.07;77.60;98970.44;346206;28;1061;-83
2022/09/16 00:03:43;;;;;;;7.45;4.80;;;;;;;16.06;77.63;98966.97;346249;28;1054;-83
2022/09/16 00:03:56;;;;;;;7.53;4.93;;;;;;;16.06;77.68;98966.13;346123;28;1051;-84
2022/09/16 00:04:08;;;;;;;8.20;5.03;;;;;;;16.08;77.58;98969.50;344649;28;1172;-83
2022/09/16 00:04:20;;;;;;;8.65;4.93;;;;;;;16.09;77.47;98960.69;344770;28;1039;-83
2022/09/16 00:04:32;;;;;;;7.35;4.47;;;;;;;16.10;77.87;98967.63;344985;28;999;-83
2022/09/16 00:04:44;;;;;;;8.48;4.30;;;;;;;16.11;77.51;98961.41;344435;28;1020;-83
2022/09/16 00:04:56;;;;;;;9.10;4.50;;;;;;;16.13;77.57;98962.16;344835;28;1074;-83
2022/09/16 00:05:08;;;;;;;6.35;4.50;;;;;;;16.15;77.27;98968.97;344892;28;1083;-84
2022/09/16 00:05:21;;;;;;;5.05;4.45;;;;;;;16.19;77.55;98966.97;344544;28;952;-83
2022/09/16 00:05:33;;;;;;;6.63;4.53;;;;;;;16.20;77.39;98965.19;344617;28;1060;-83
2022/09/16 00:05:48;;;;;;;7.90;4.72;;;;;;;16.23;77.37;98968.47;344425;28;1263;-83
2022/09/16 00:06:00;;;;;;;7.20;4.57;;;;;;;16.16;77.32;98972.44;345226;28;1053;-83
2022/09/16 00:06:22;;;;;;;6.15;4.57;;;;;;;16.18;77.81;98962.69;344915;28;1206;-83
2022/09/16 00:06:34;;;;;;;6.45;4.60;;;;;;;16.15;77.58;98966.34;346040;28;1108;-83
2022/09/16 00:06:46;;;;;;;7.38;4.70;;;;;;;16.18;77.82;98970.56;346150;28;1182;-83
2022/09/16 00:06:58;;;;;;;7.88;5.05;;;;;;;16.18;78.12;98966.16;346216;28;1172;-83
2022/09/16 00:07:10;;;;;;;8.27;5.10;;;;;;;16.18;78.64;98971.41;345986;28;1204;-83
2022/09/16 00:07:22;;;;;;;6.70;4.60;;;;;;;16.18;78.40;98970.56;346203;28;1069;-83
2022/09/16 00:07:34;;;;;;;5.82;4.35;;;;;;;16.19;78.39;98966.97;346103;28;1167;-83
2022/09/16 00:07:46;;;;;;;7.20;4.43;;;;;;;16.18;77.87;98968.78;346073;28;1102;-83
2022/09/16 00:07:58;;;;;;;8.20;4.40;;;;;;;16.20;78.68;98962.56;346381;28;971;-83
2022/09/16 00:08:10;;;;;;;7.15;4.60;;;;;;;16.19;78.37;98961.75;346728;28;727;-83
2022/09/16 00:08:23;;;;;;;6.80;4.70;;;;;;;16.20;78.15;98968.69;346711;28;997;-83
2022/09/16 00:08:35;;;;;;;7.25;4.82;;;;;;;16.22;78.16;98966.78;346646;28;1098;-83
2022/09/16 00:08:50;;;;;;;6.78;4.88;;;;;;;16.21;77.74;98965.09;346177;28;1214;-84
2022/09/16 00:09:02;;;;;;;5.90;4.70;;;;;;;16.19;77.69;98961.75;346484;28;1179;-83
2022/09/16 00:09:14;;;;;;;5.95;4.80;;;;;;;16.20;77.61;98962.56;346237;28;1200;-83
2022/09/16 00:09:26;;;;;;;5.63;4.88;;;;;;;16.19;77.51;98964.38;344691;28;1199;-83
2022/09/16 00:09:38;;;;;;;6.20;4.88;;;;;;;16.14;77.33;98959.44;344687;28;1051;-83
2022/09/16 00:09:50;;;;;;;7.03;4.90;;;;;;;16.15;77.49;98963.72;344561;28;1148;-83
2022/09/16 00:10:04;;;;;;;6.68;4.97;;;;;;;16.15;77.46;98960.25;344664;28;1042;-83
2022/09/16 00:10:16;;;;;;;6.93;4.85;;;;;;;16.18;77.10;98960.06;344736;28;1075;-83
2022/09/16 00:10:28;;;;;;;7.65;4.90;;;;;;;16.20;77.40;98968.69;344757;28;1148;-83
2022/09/16 00:10:42;;;;;;;6.82;4.78;;;;;;;16.21;77.16;98966.88;344723;28;1027;-83
2022/09/16 00:10:59;;;;;;;6.28;4.38;;;;;;;16.24;77.10;98964.03;344685;28;1074;-83
2022/09/16 00:11:11;;;;;;;7.97;4.60;;;;;;;16.25;77.02;98961.31;345215;28;1067;-83
2022/09/16 00:11:23;;;;;;;8.18;4.80;;;;;;;16.25;76.72;98963.13;344845;28;1100;-83
2022/09/16 00:11:35;;;;;;;7.07;4.70;;;;;;;16.29;76.76;98956.72;346711;28;773;-84
2022/09/16 00:11:47;;;;;;;6.70;4.70;;;;;;;16.30;76.60;98961.88;344732;28;1126;-84
2022/09/16 00:11:59;;;;;;;6.87;4.63;;;;;;;16.30;76.84;98959.25;344807;28;1063;-83
2022/09/16 00:12:11;;;;;;;6.72;4.60;;;;;;;16.30;76.69;98959.25;344667;28;1078;-83
2022/09/16 00:12:23;;;;;;;6.40;4.25;;;;;;;16.30;76.37;98953.19;344727;28;1172;-83
2022/09/16 00:12:35;;;;;;;7.10;4.30;;;;;;;16.32;76.49;98953.91;344554;28;1086;-83
2022/09/16 00:12:48;;;;;;;7.07;4.47;;;;;;;16.35;76.19;98961.56;343538;28;1105;-83
2022/09/16 00:13:00;;;;;;;8.68;4.60;;;;;;;16.37;76.29;98955.25;343380;28;1198;-83
2022/09/16 00:13:13;;;;;;;7.35;4.35;;;;;;;16.36;76.10;98963.25;343477;28;1072;-84
2022/09/16 00:13:25;;;;;;;4.63;4.20;;;;;;;16.35;76.27;98954.50;343706;28;2083;-83
2022/09/16 00:13:37;;;;;;;4.65;4.25;;;;;;;16.35;76.23;98962.38;344310;28;1392;-83
2022/09/16 00:13:49;;;;;;;5.63;4.35;;;;;;;16.35;76.12;98958.94;344162;28;1075;-83
2022/09/16 00:14:01;;;;;;;5.55;4.28;;;;;;;16.33;76.07;98959.03;345130;28;868;-83
2022/09/16 00:14:13;;;;;;;5.78;4.13;;;;;;;16.30;76.07;98959.25;343682;28;1191;-83
2022/09/16 00:14:25;;;;;;;4.85;4.00;;;;;;;16.32;76.16;98960.00;343444;28;1075;-83
2022/09/16 00:14:37;;;;;;;6.63;4.20;;;;;;;16.34;76.16;98960.72;343326;28;1058;-83
2022/09/16 00:14:54;;;;;;;7.65;4.47;;;;;;;16.33;76.01;98958.19;344057;28;975;-83
2022/09/16 00:15:07;;;;;;;7.20;4.63;;;;;;;16.34;75.74;98960.72;344848;28;1550;-83
2022/09/16 00:15:19;;;;;;;5.82;4.60;;;;;;;16.33;75.78;98956.41;345086;28;896;-83
2022/09/16 00:15:31;;;;;;;5.07;4.53;;;;;;;16.37;75.72;98964.91;345140;28;833;-83
2022/09/16 00:15:46;;;;;;;4.90;4.22;;;;;;;16.38;75.76;98956.94;344983;28;1106;-83
2022/09/16 00:15:58;;;;;;;5.20;4.25;;;;;;;16.41;75.61;98957.69;344884;28;1097;-83
2022/09/16 00:16:17;;;;;;;5.70;4.40;;;;;;;16.38;75.88;98962.19;345879;28;894;-83
2022/09/16 00:16:29;;;;;;;5.88;4.60;;;;;;;16.36;75.74;98958.84;346046;28;1021;-83
2022/09/16 00:16:41;;;;;;;5.78;4.80;;;;;;;16.37;75.79;98965.75;346132;28;1070;-84
2022/09/16 00:16:53;;;;;;;5.75;4.57;;;;;;;16.37;75.69;98960.50;346366;28;1184;-83
2022/09/16 00:17:04;;;;;;;5.53;4.15;;;;;;;16.34;75.54;98960.72;346191;28;1066;-83
2022/09/16 00:17:16;;;;;;;6.20;4.15;;;;;;;16.36;75.52;98958.84;346344;28;1078;-83
2022/09/16 00:17:29;;;;;;;6.47;4.30;;;;;;;16.36;75.56;98961.47;346035;28;1153;-83
2022/09/16 00:17:41;;;;;;;6.32;4.32;;;;;;;16.38;75.64;98963.97;346124;28;1055;-83
2022/09/16 00:17:53;;;;;;;5.70;4.20;;;;;;;16.40;75.61;98961.22;346340;28;1050;-83
2022/09/16 00:18:05;;;;;;;5.43;4.28;;;;;;;16.41;75.49;98965.56;346316;28;1047;-83
2022/09/16 00:18:19;;;;;;;6.40;4.38;;;;;;;16.41;75.58;98962.94;345955;28;1049;-83
2022/09/16 00:18:31;;;;;;;8.05;4.45;;;;;;;16.41;75.69;98966.38;344889;28;1207;-83
2022/09/16 00:18:43;;;;;;;9.00;4.70;;;;;;;16.43;75.46;98971.53;345202;28;1302;-85
2022/09/16 00:18:57;;;;;;;11.10;4.63;;;;;;;16.45;75.39;98961.78;344247;28;1063;-83
2022/09/16 00:19:09;;;;;;;9.35;4.40;;;;;;;16.45;75.50;98967.03;343742;28;1019;-83
2022/09/16 00:19:20;;;;;;;10.13;4.40;;;;;;;16.46;75.32;98963.44;343742;28;1015;-83
2022/09/16 00:19:33;;;;;;;8.80;4.60;;;;;;;16.45;75.33;98967.03;343394;28;1140;-83
2022/09/16 00:19:45;;;;;;;7.90;4.72;;;;;;;16.46;75.19;98963.44;343791;28;1191;-83
2022/09/16 00:19:57;;;;;;;6.15;4.47;;;;;;;16.47;75.16;98962.50;343757;28;1205;-83
2022/09/16 00:20:09;;;;;;;5.20;4.23;;;;;;;16.45;75.19;98959.16;343804;28;1187;-84
2022/09/16 00:20:21;;;;;;;6.50;4.30;;;;;;;16.47;74.91;98965.97;343635;28;1098;-83
2022/09/16 00:20:33;;;;;;;5.63;4.07;;;;;;;16.46;75.07;98963.44;343616;28;872;-83
2022/09/16 00:20:50;;;;;;;5.28;4.15;;;;;;;16.47;75.23;98965.13;344999;28;1059;-83
2022/09/16 00:21:09;;;;;;;5.38;4.22;;;;;;;16.50;75.63;98964.91;346323;28;1767;-83
2022/09/16 00:21:21;;;;;;;5.80;4.40;;;;;;;16.50;75.57;98967.53;347204;28;1194;-82
2022/09/16 00:21:33;;;;;;;6.18;4.45;;;;;;;16.52;75.65;98969.13;344793;28;1153;-83
2022/09/16 00:21:47;;;;;;;6.53;4.40;;;;;;;16.51;75.48;98967.44;344875;28;1068;-83
2022/09/16 00:21:59;;;;;;;7.90;4.40;;;;;;;16.53;75.49;98962.91;344686;28;1115;-83
2022/09/16 00:22:11;;;;;;;7.05;3.95;;;;;;;16.54;76.00;98972.50;344871;28;1126;-83
2022/09/16 00:22:23;;;;;;;6.22;4.05;;;;;;;16.56;75.66;98969.78;344803;28;1189;-83
2022/09/16 00:22:35;;;;;;;5.25;4.20;;;;;;;16.57;75.66;98971.44;344731;28;1090;-83
2022/09/16 00:22:47;;;;;;;4.80;4.30;;;;;;;16.58;75.49;98967.88;344826;28;1233;-83
2022/09/16 00:22:59;;;;;;;5.45;4.30;;;;;;;16.59;75.51;98974.78;344918;28;1231;-83
2022/09/16 00:23:11;;;;;;;6.07;4.22;;;;;;;16.58;75.26;98967.88;344873;28;1056;-83
2022/09/16 00:23:23;;;;;;;6.13;4.15;;;;;;;16.58;75.25;98970.50;344636;28;1135;-83
2022/09/16 00:23:36;;;;;;;5.45;4.13;;;;;;;16.54;74.91;98975.13;345405;28;1101;-83
2022/09/16 00:23:48;;;;;;;5.85;4.30;;;;;;;16.56;75.05;98969.78;346268;28;1026;-83
2022/09/16 00:24:00;;;;;;;6.70;4.10;;;;;;;16.51;75.26;98972.69;347406;28;1079;-84
2022/09/16 00:24:14;;;;;;;6.28;3.95;;;;;;;16.53;75.11;98975.22;346334;28;1083;-83
2022/09/16 00:24:27;;;;;;;5.70;3.85;;;;;;;16.54;75.40;98976.88;344599;28;1205;-83
2022/09/16 00:24:39;;;;;;;5.32;3.85;;;;;;;16.55;75.72;98978.56;343095;28;1058;-83
2022/09/16 00:24:51;;;;;;;5.45;4.10;;;;;;;16.54;75.80;98976.88;344218;28;1294;-83
2022/09/16 00:25:03;;;;;;;6.03;4.30;;;;;;;16.51;75.87;98977.09;343538;28;1031;-84
2022/09/16 00:25:15;;;;;;;5.65;4.25;;;;;;;16.45;75.79;98969.66;343446;28;1755;-83
2022/09/16 00:25:27;;;;;;;5.55;4.10;;;;;;;16.46;75.83;98973.94;343706;28;1063;-83
2022/09/16 00:25:39;;;;;;;5.22;4.10;;;;;;;16.47;75.74;98973.84;343833;28;967;-83
2022/09/16 00:25:53;;;;;;;6.63;4.20;;;;;;;16.44;75.54;98970.56;343370;28;1099;-83
2022/09/16 00:26:05;;;;;;;6.63;4.40;;;;;;;16.35;75.16;98980.75;343255;28;1044;-83
2022/09/16 00:26:18;;;;;;;7.47;4.60;;;;;;;16.35;75.41;98980.75;343373;28;888;-83
2022/09/16 00:26:30;;;;;;;8.15;4.60;;;;;;;16.31;75.09;98975.81;344836;28;1103;-83
2022/09/16 00:26:42;;;;;;;8.05;4.40;;;;;;;16.30;74.94;98977.59;344952;28;1119;-83
2022/09/16 00:26:54;;;;;;;7.30;4.15;;;;;;;16.29;75.45;98977.69;345171;28;893;-84
2022/09/16 00:27:06;;;;;;;6.82;4.10;;;;;;;16.26;75.15;98981.38;345392;28;888;-83
2022/09/16 00:27:18;;;;;;;6.25;4.20;;;;;;;16.19;74.90;98987.97;346047;28;930;-83
2022/09/16 00:27:30;;;;;;;5.25;4.10;;;;;;;16.20;74.96;98979.16;346247;28;1273;-83
2022/09/16 00:27:42;;;;;;;5.20;4.10;;;;;;;16.22;75.33;98982.53;345967;28;1075;-83
2022/09/16 00:27:54;;;;;;;5.47;4.13;;;;;;;16.28;74.89;98976.88;346232;28;1127;-83
2022/09/16 00:28:06;;;;;;;7.33;4.10;;;;;;;16.27;75.00;98980.41;346207;28;1007;-83
2022/09/16 00:28:20;;;;;;;7.07;4.13;;;;;;;16.20;74.92;98973.06;346063;28;1032;-83
2022/09/16 00:28:32;;;;;;;6.80;4.30;;;;;;;16.17;75.06;98984.59;346262;28;1061;-83
2022/09/16 00:28:48;;;;;;;6.07;4.25;;;;;;;16.19;75.12;98977.47;345968;28;1287;-83
2022/09/16 00:29:00;;;;;;;5.47;4.00;;;;;;;16.23;75.18;98976.31;346453;28;1240;-83
2022/09/16 00:29:12;;;;;;;5.38;3.90;;;;;;;16.19;75.17;98972.22;346511;28;1276;-84
2022/09/16 00:29:24;;;;;;;7.32;3.97;;;;;;;16.18;75.40;98970.56;346243;28;1187;-83
2022/09/16 00:29:36;;;;;;;7.90;4.00;;;;;;;16.19;75.01;98972.22;346585;28;988;-84
2022/09/16 00:29:48;;;;;;;5.75;4.00;;;;;;;16.21;75.14;98975.59;346271;28;1097;-83
2022/09/16 00:30:00;;;;;;;4.72;3.92;;;;;;;16.16;75.10;98972.44;346024;28;1051;-83
2022/09/16 00:30:12;;;;;;;4.95;4.05;;;;;;;16.20;75.15;98973.94;346729;28;731;-83
2022/09/16 00:30:24;;;;;;;6.47;4.03;;;;;;;16.19;74.94;98977.47;346217;28;1057;-83
2022/09/16 00:30:36;;;;;;;7.40;4.10;;;;;;;16.22;75.59;98976.41;345725;28;1066;-83
2022/09/16 00:30:48;;;;;;;5.50;3.80;;;;;;;16.16;75.19;98977.69;346651;28;728;-83
2022/09/16 00:31:01;;;;;;;4.25;3.85;;;;;;;16.18;75.26;98975.81;346135;28;922;-83
2022/09/16 00:31:13;;;;;;;4.60;4.00;;;;;;;16.21;75.32;98975.59;346091;28;871;-83
2022/09/16 00:31:25;;;;;;;5.93;4.22;;;;;;;16.20;75.02;98973.94;345891;28;841;-83
2022/09/16 00:31:37;;;;;;;5.72;4.20;;;;;;;16.22;75.08;98977.28;345357;28;1043;-83
2022/09/16 00:31:49;;;;;;;6.60;4.03;;;;;;;16.23;74.93;98976.31;344688;28;1059;-83
2022/09/16 00:32:01;;;;;;;7.25;3.90;;;;;;;16.15;74.89;98976.00;344802;28;1028;-83
2022/09/16 00:32:13;;;;;;;7.43;3.95;;;;;;;16.07;75.11;98973.88;344928;28;1063;-83
2022/09/16 00:32:25;;;;;;;6.25;4.07;;;;;;;16.10;75.10;98976.31;344732;28;1183;-83
2022/09/16 00:32:37;;;;;;;6.20;4.20;;;;;;;16.12;75.16;98978.84;344716;28;1179;-83
2022/09/16 00:32:49;;;;;;;5.50;4.22;;;;;;;16.07;75.28;98973.88;344490;28;1058;-83
2022/09/16 00:33:01;;;;;;;5.45;4.13;;;;;;;16.05;75.41;98970.53;343775;28;745;-83
2022/09/16 00:33:13;;;;;;;5.20;4.10;;;;;;;16.08;75.18;98967.72;343431;28;1023;-83
2022/09/16 00:33:26;;;;;;;5.78;4.18;;;;;;;16.11;75.38;98970.09;343380;28;1240;-83
2022/09/16 00:33:38;;;;;;;5.85;4.20;;;;;;;16.10;75.45;98967.63;343363;28;1361;-83
2022/09/16 00:33:50;;;;;;;6.03;4.50;;;;;;;16.13;76.17;98972.63;341940;28;1055;-83
2022/09/16 00:34:02;;;;;;;7.28;4.35;;;;;;;16.13;75.93;98968.22;342087;28;901;-83
2022/09/16 00:34:14;;;;;;;5.90;4.05;;;;;;;16.15;75.94;98968.97;342958;28;1100;-84
2022/09/16 00:34:26;;;;;;;4.55;3.97;;;;;;;16.18;76.17;98965.31;342319;28;1300;-83
2022/09/16 00:34:38;;;;;;;5.93;4.40;;;;;;;16.19;75.98;98966.97;343522;28;1140;-83
2022/09/16 00:34:50;;;;;;;6.05;4.63;;;;;;;16.22;75.95;98963.31;343240;28;1115;-83
2022/09/16 00:35:03;;;;;;;5.00;4.38;;;;;;;16.21;75.50;98970.34;343469;28;1016;-83
2022/09/16 00:35:14;;;;;;;6.20;4.30;;;;;;;16.23;75.48;98968.47;343469;28;1055;-83
2022/09/16 00:35:26;;;;;;;7.38;4.20;;;;;;;16.25;75.44;98970.97;343175;28;1906;-83
2022/09/16 00:35:38;;;;;;;6.37;3.93;;;;;;;16.27;75.31;98963.84;343595;28;1082;-83
2022/09/16 00:35:50;;;;;;;6.70;4.03;;;;;;;16.26;75.13;98968.28;343761;28;1202;-83
2022/09/16 00:36:22;;;;;;;5.45;4.10;;;;;;;16.30;75.20;98964.50;344855;28;1074;-83
2022/09/16 00:36:34;;;;;;;7.80;4.05;;;;;;;16.33;75.55;98960.81;344863;28;1172;-83
2022/09/16 00:36:46;;;;;;;6.57;4.00;;;;;;;16.35;75.40;98972.88;345429;28;1746;-83
2022/09/16 00:36:58;;;;;;;7.50;4.38;;;;;;;16.33;75.50;98964.28;345305;28;1153;-83
2022/09/16 00:37:10;;;;;;;7.50;4.50;;;;;;;16.37;75.28;98965.75;344603;28;1165;-83
2022/09/16 00:37:23;;;;;;;7.43;4.35;;;;;;;16.38;75.08;98964.81;344742;28;1031;-84
2022/09/16 00:37:35;;;;;;;6.53;3.95;;;;;;;16.42;74.95;98968.06;345113;28;1746;-83
2022/09/16 00:37:47;;;;;;;5.43;3.80;;;;;;;16.42;74.82;98967.22;344730;28;1145;-83
2022/09/16 00:37:59;;;;;;;6.10;4.22;;;;;;;16.44;74.55;98970.56;344651;28;1065;-83
2022/09/16 00:38:11;;;;;;;5.80;4.25;;;;;;;16.45;74.49;98967.03;344667;28;1133;-83
2022/09/16 00:38:23;;;;;;;5.57;4.18;;;;;;;16.45;74.27;98972.28;344944;28;1187;-83
2022/09/16 00:38:36;;;;;;;5.13;3.88;;;;;;;16.43;74.39;98969.75;344661;28;1121;-83
2022/09/16 00:38:53;;;;;;;5.30;4.00;;;;;;;16.44;74.36;98960.09;345170;28;1402;-83
2022/09/16 00:39:05;;;;;;;5.28;4.20;;;;;;;16.43;74.38;98969.75;344682;28;1854;-83
2022/09/16 00:39:17;;;;;;;4.97;3.80;;;;;;;16.44;74.07;98971.44;343157;28;1064;-83
2022/09/16 00:39:29;;;;;;;5.35;3.83;;;;;;;16.45;74.41;98972.28;344250;28;1047;-83
2022/09/16 00:39:41;;;;;;;5.57;3.88;;;;;;;16.43;74.49;98971.53;343485;28;1058;-84
2022/09/16 00:39:53;;;;;;;5.53;4.00;;;;;;;16.44;74.49;98975.81;343360;28;1040;-84
2022/09/16 00:40:05;;;;;;;6.50;4.10;;;;;;;16.45;74.71;98973.09;343506;28;1025;-83
2022/09/16 00:40:18;;;;;;;6.63;4.18;;;;;;;16.46;75.00;98968.69;343491;28;1054;-83
2022/09/16 00:40:30;;;;;;;6.93;4.30;;;;;;;16.46;74.66;98966.94;343130;28;1217;-83
2022/09/16 00:40:44;;;;;;;6.28;4.30;;;;;;;16.41;74.41;98971.63;342851;28;1164;-83
2022/09/16 00:40:56;;;;;;;5.20;4.18;;;;;;;16.44;74.58;98967.94;343415;28;1176;-83
2022/09/16 00:41:15;;;;;;;5.60;4.10;;;;;;;16.45;74.38;98972.28;343385;28;1028;-83
2022/09/16 00:41:32;;;;;;;5.43;4.05;;;;;;;16.43;74.25;98969.75;344578;28;1011;-83
2022/09/16 00:41:44;;;;;;;6.22;4.07;;;;;;;16.45;74.18;98972.28;344672;28;1223;-83
2022/09/16 00:41:56;;;;;;;8.15;4.20;;;;;;;16.45;74.27;98970.47;345117;28;1103;-83
2022/09/16 00:42:10;;;;;;;6.97;4.07;;;;;;;16.48;74.02;98966.78;344934;28;1000;-84
2022/09/16 00:42:22;;;;;;;5.82;3.80;;;;;;;16.49;74.11;98964.06;344820;28;1198;-84
2022/09/16 00:42:39;;;;;;;5.00;3.55;;;;;;;16.54;74.14;98974.25;345108;28;941;-83
2022/09/16 00:42:51;;;;;;;4.80;3.63;;;;;;;16.53;74.43;98975.22;344596;28;1114;-83
2022/09/16 00:43:04;;;;;;;5.22;3.83;;;;;;;16.55;74.05;98973.31;344731;28;1214;-83
2022/09/16 00:43:18;;;;;;;5.40;3.95;;;;;;;16.54;74.05;98964.63;343328;28;1234;-83
2022/09/16 00:43:47;;;;;;;4.72;3.72;;;;;;;16.57;73.93;98969.63;343345;28;1050;-83
2022/09/16 00:44:02;;;;;;;6.47;3.92;;;;;;;16.55;73.70;98973.31;343629;28;1190;-83
2022/09/16 00:44:51;;;;;;;4.80;3.60;;;;;;;16.58;74.74;98975.75;343445;28;1080;-83
2022/09/16 00:45:27;;;;;;;5.65;3.97;;;;;;;16.60;74.29;98968.63;343444;28;1074;-83
2022/09/16 00:45:40;;;;;;;5.97;4.43;;;;;;;16.61;73.95;98970.28;344821;28;1047;-83
2022/09/16 00:46:01;;;;;;;8.38;4.40;;;;;;;16.63;73.85;98970.19;344828;28;1179;-83
2022/09/16 00:46:15;;;;;;;7.50;4.38;;;;;;;16.64;73.85;98970.09;344748;28;960;-83
2022/09/16 00:46:48;;;;;;;7.10;4.38;;;;;;;16.67;74.11;98971.66;344960;28;1183;-83
2022/09/16 00:47:00;;;;;;;4.82;3.90;;;;;;;16.66;73.88;98968.19;343445;28;1204;-83
2022/09/16 00:47:15;;;;;;;6.45;4.15;;;;;;;16.70;73.78;98972.28;344372;28;1103;-83
2022/09/16 00:47:36;;;;;;;5.80;3.97;;;;;;;16.71;73.67;98973.94;343433;28;1193;-84
2022/09/16 00:48:04;;;;;;;4.55;3.70;;;;;;;16.74;73.33;98973.75;343638;28;1694;-83
2022/09/16 00:48:21;;;;;;;6.20;4.18;;;;;;;16.74;73.42;98973.75;343582;28;1111;-84
2022/09/16 00:48:33;;;;;;;6.72;4.00;;;;;;;16.74;73.45;98968.50;343857;28;858;-84
2022/09/16 00:48:45;;;;;;;7.50;3.90;;;;;;;16.74;73.87;98970.25;343351;28;1158;-83
2022/09/16 00:49:01;;;;;;;7.85;4.07;;;;;;;16.75;73.85;98975.41;343984;28;729;-84
2022/09/16 00:49:28;;;;;;;7.47;4.20;;;;;;;16.75;74.00;98971.97;344692;28;962;-84
2022/09/16 00:49:40;;;;;;;5.50;4.07;;;;;;;16.75;74.89;98975.41;345618;28;1063;-83
2022/09/16 00:49:55;;;;;;;7.10;4.13;;;;;;;16.74;75.16;98976.38;344656;28;1075;-84
2022/09/16 00:50:12;;;;;;;6.40;4.15;;;;;;;16.75;74.92;98970.16;344595;28;1004;-83
2022/09/16 00:50:50;;;;;;;4.95;4.15;;;;;;;16.78;74.70;98974.34;344560;28;1130;-84
2022/09/16 00:51:05;;;;;;;5.43;3.90;;;;;;;16.80;74.67;98976.88;344554;28;1053;-83
2022/09/16 00:51:19;;;;;;;4.78;3.90;;;;;;;16.80;74.47;98974.25;344564;28;1182;-83
2022/09/16 00:51:32;;;;;;;4.60;4.10;;;;;;;16.78;74.10;98969.09;343401;28;1041;-83
2022/09/16 00:51:48;;;;;;;5.72;4.20;;;;;;;16.78;73.53;98969.09;343580;28;1051;-83
2022/09/16 00:52:04;;;;;;;5.47;4.07;;;;;;;16.75;73.51;98975.41;342240;28;1005;-83
2022/09/16 00:52:18;;;;;;;4.95;3.92;;;;;;;16.76;73.82;98966.63;342895;28;1354;-84
2022/09/16 00:52:30;;;;;;;5.70;3.90;;;;;;;16.77;73.88;98976.16;342160;28;1058;-84
2022/09/16 00:52:42;;;;;;;5.18;3.75;;;;;;;16.78;74.12;98969.97;341978;28;1144;-83
2022/09/16 00:52:56;;;;;;;5.15;3.72;;;;;;;16.82;74.30;98975.03;342401;28;742;-83
2022/09/16 00:53:12;;;;;;;6.03;3.80;;;;;;;16.82;74.66;98969.78;342131;28;1085;-83
2022/09/16 00:53:28;;;;;;;7.10;4.15;;;;;;;16.83;74.45;98974.09;342154;28;1198;-83
2022/09/16 00:53:48;;;;;;;6.07;4.30;;;;;;;16.84;74.28;98973.13;343400;28;1063;-83
2022/09/16 00:54:03;;;;;;;6.85;4.30;;;;;;;16.82;74.02;98972.41;343937;28;1034;-83
2022/09/16 00:54:18;;;;;;;7.00;4.13;;;;;;;16.82;74.00;98975.88;344764;28;1717;-83
2022/09/16 00:54:33;;;;;;;5.68;4.15;;;;;;;16.81;74.74;98973.31;345065;28;1885;-83
2022/09/16 00:54:45;;;;;;;9.82;4.22;;;;;;;16.80;75.09;98976.88;344768;28;1020;-83
2022/09/16 00:55:01;;;;;;;9.90;4.20;;;;;;;16.78;75.04;98977.84;345240;28;1043;-83
2022/09/16 00:55:19;;;;;;;4.88;4.03;;;;;;;16.80;74.91;98971.63;344869;28;1012;-84
2022/09/16 00:55:35;;;;;;;5.18;3.88;;;;;;;16.77;74.58;98970.91;343220;28;1153;-84
2022/09/16 00:55:50;;;;;;;5.80;4.07;;;;;;;16.78;74.62;98967.34;343082;28;1034;-83
2022/09/16 00:56:05;;;;;;;5.22;4.00;;;;;;;16.81;74.83;98973.31;343437;28;1059;-83
2022/09/16 00:56:22;;;;;;;5.80;3.95;;;;;;;16.83;74.65;98974.09;342091;28;1024;-83
2022/09/16 00:56:38;;;;;;;7.10;4.20;;;;;;;16.85;74.81;98974.81;342001;28;1223;-83
2022/09/16 00:56:52;;;;;;;6.63;4.45;;;;;;;16.85;74.88;98974.81;341880;28;1987;-83
2022/09/16 00:57:08;;;;;;;6.47;4.38;;;;;;;16.86;74.85;98977.34;342003;28;1252;-83
2022/09/16 00:57:20;;;;;;;5.60;4.18;;;;;;;16.87;74.65;98972.94;342304;28;1202;-83
2022/09/16 00:57:33;;;;;;;5.28;4.18;;;;;;;16.89;74.82;98965.78;343082;28;890;-83
2022/09/16 00:57:46;;;;;;;5.25;4.07;;;;;;;16.89;74.66;98968.41;343577;28;1107;-83
2022/09/16 00:58:16;;;;;;;5.13;4.10;;;;;;;16.92;74.65;98968.19;343295;28;1088;-83
2022/09/16 00:58:36;;;;;;;6.03;3.90;;;;;;;16.94;74.71;98972.41;344878;28;1226;-83
2022/09/16 00:59:02;;;;;;;5.88;3.63;;;;;;;16.95;74.57;98971.44;344782;28;1481;-83
2022/09/16 00:59:29;;;;;;;4.35;3.90;;;;;;;16.98;74.68;98970.38;345050;28;1195;-83
2022/09/16 00:59:44;;;;;;;4.30;3.75;;;;;;;17.01;74.60;98974.59;344809;28;1184;-83
2022/09/16 00:59:59;;;;;;;4.38;3.58;;;;;;;17.02;75.12;98961.34;345035;28;1043;-83
2022/09/16 01:00:12;;;;;;;5.28;4.05;;;;;;;17.02;75.17;98969.22;344910;28;1035;-83
2022/09/16 01:00:24;;;;;;;5.53;4.15;;;;;;;17.00;75.45;98972.91;344998;28;1197;-83
2022/09/16 01:00:37;;;;;;;5.03;4.20;;;;;;;17.02;75.32;98978.88;344205;28;1749;-84
2022/09/16 01:00:49;;;;;;;4.88;4.10;;;;;;;17.00;75.38;98973.72;344758;28;1039;-83
2022/09/16 01:01:04;;;;;;;5.18;3.90;;;;;;;17.01;75.21;98975.44;343430;28;1170;-83
2022/09/16 01:01:16;;;;;;;5.20;4.13;;;;;;;16.99;75.16;98973.88;343384;28;1020;-83
2022/09/16 01:01:30;;;;;;;4.78;4.18;;;;;;;17.00;75.03;98973.72;343360;28;1163;-83
2022/09/16 01:01:43;;;;;;;5.28;3.95;;;;;;;17.01;74.90;98969.34;343323;28;966;-83
2022/09/16 01:01:59;;;;;;;5.80;3.90;;;;;;;17.01;74.84;98972.81;343471;28;1063;-84
2022/09/16 01:02:16;;;;;;;7.93;4.20;;;;;;;17.02;74.75;98971.84;343571;28;1232;-83
2022/09/16 01:02:28;;;;;;;8.45;3.92;;;;;;;17.03;74.56;98973.53;343564;28;1047;-83
2022/09/16 01:02:43;;;;;;;6.38;3.67;;;;;;;16.99;74.69;98977.31;344009;28;1107;-84
2022/09/16 01:02:55;;;;;;;6.07;3.90;;;;;;;16.96;74.75;98972.28;343383;28;1050;-84
2022/09/16 01:03:07;;;;;;;6.28;4.28;;;;;;;16.95;74.88;98973.22;344353;28;1087;-83
2022/09/16 01:03:19;;;;;;;5.20;4.18;;;;;;;16.94;74.96;98968.91;344988;28;1178;-83
2022/09/16 01:03:41;;;;;;;5.43;4.03;;;;;;;16.96;75.04;98972.28;344892;28;1113;-83
2022/09/16 01:03:58;;;;;;;4.93;4.15;;;;;;;16.97;74.87;98968.72;345153;28;985;-83
2022/09/16 01:04:21;;;;;;;4.97;4.13;;;;;;;16.99;74.79;98977.31;344641;28;1016;-83
2022/09/16 01:04:38;;;;;;;6.70;4.35;;;;;;;16.99;74.69;98971.25;344903;28;1221;-83
2022/09/16 01:04:57;;;;;;;7.55;4.57;;;;;;;17.00;75.21;98976.34;344590;28;1087;-83
2022/09/16 01:05:15;;;;;;;8.30;4.47;;;;;;;17.00;74.89;98978.16;345852;28;1041;-83
2022/09/16 01:05:28;;;;;;;8.02;4.03;;;;;;;16.98;75.05;98978.25;344778;28;1084;-83
2022/09/16 01:05:40;;;;;;;6.07;4.13;;;;;;;16.98;75.16;98975.63;344640;28;1059;-84
2022/09/16 01:05:52;;;;;;;6.18;4.32;;;;;;;16.99;75.51;98976.50;344768;28;1075;-84
2022/09/16 01:06:05;;;;;;;6.70;4.45;;;;;;;16.98;75.63;98983.50;344737;28;1050;-84
2022/09/16 01:06:18;;;;;;;7.03;4.47;;;;;;;16.97;75.69;98969.53;344326;28;1031;-83
2022/09/16 01:06:32;;;;;;;7.50;4.43;;;;;;;16.98;75.70;98980.88;343357;28;912;-84
2022/09/16 01:06:44;;;;;;;8.43;4.38;;;;;;;16.98;75.76;98980.88;343469;28;1083;-83
2022/09/16 01:06:57;;;;;;;8.35;4.50;;;;;;;16.98;75.65;98970.38;343440;28;1022;-83
2022/09/16 01:07:09;;;;;;;7.50;4.40;;;;;;;17.00;75.49;98973.72;343431;28;1084;-84